Ames, IA (50010)

1:03 PM CDT on August 31, 2015 (GMT -0500)
IEM | | Change Station
CLOSE
Current Station
Personal Weather Station
Location: Ames, IA
Elevation: 1017 ft
Nearby Weather Stations

Elev 1017 ft 42.05 °N, 93.63 °W | Updated 24 minutes ago

Scattered Clouds
Scattered Clouds
82 °F
Feels Like 87 °F
N
5
Wind Variable Wind from East
Gusts 0.0 mph

Today
High -- | Low -- °F
--% Chance of Precip.
Yesterday
High -- | Low -- °F
Precip. -- in
6:38 AM 7:50 PM
Waning Gibbous, 94% visible
Pressure 29.96 in
Visibility 8.0 miles
Clouds Few 2600 ft
Scattered Clouds 4200 ft
Heat Index 87 °F
Dew Point 73 °F
Humidity 74%
Rainfall in
Snow Depth Not available.
UV 7 out of 12
Pollen 11.40 out of 12
Air Quality Not available.
Flu Activity Not available.
METAR KAMW 311753Z AUTO 17012KT 8SM FEW026 SCT042 28/23 A2998 RMK AO2 SLP143 T02830228 10283 20167 58007
Pressure 29.96 in
Visibility 8.0 miles
Clouds Few 2600 ft
Scattered Clouds 4200 ft
Heat Index 87 °F
Dew Point 73 °F
Humidity 74%
Rainfall in
Snow Depth Not available.
UV 7 out of 12
Pollen 11.40 out of 12
Air Quality Not available.
Flu Activity Not available.
METAR KAMW 311753Z AUTO 17012KT 8SM FEW026 SCT042 28/23 A2998 RMK AO2 SLP143 T02830228 10283 20167 58007

10-Day Weather Forecast

×

Almanac

Astronomy

Aug. 31, 2015 Rise Set
Actual Time
Civil Twilight
Nautical Twilight
Astronomical Twilight
Moon
Length of Visible Light
Length of Day
Tomorrow will be .
, % of the Moon is Illuminated

Today's Extremes

State Highs State Lows

Community

WunderPhotos

Upload Photos

1,851,324 photos uploaded!

WunderBlogs® & News

Nearby

Air Quality

  Air Quality AQ Index Pollutant
Not available.

Snow Depth

Station Depth Elevation

Earthquake Activity

City Distance Mag. Time & Date
Minimum magnitude displayed is 2.5.

Coastal Water Temperatures

Place Temperature

Stations

Nearby Weather Stations

Station Location Temp. Windchill Dew Point Humidity Wind Precip. Elev Updated Type